createdAt,value
2017-10-26T00:00:28.741Z,1017.23
2017-10-26T00:01:09.331Z,1017.19
2017-10-26T00:01:49.902Z,1017.2
2017-10-26T00:02:30.460Z,1017.09
2017-10-26T00:03:11.048Z,1017.07
2017-10-26T00:03:51.612Z,1017.01
2017-10-26T00:04:32.183Z,1017.04
2017-10-26T00:05:12.773Z,1017
2017-10-26T00:05:53.372Z,1016.99
2017-10-26T00:06:33.933Z,1017.03
2017-10-26T00:07:14.517Z,1017.07
2017-10-26T00:07:55.120Z,1017.12
2017-10-26T00:08:35.669Z,1017.12
2017-10-26T00:09:16.260Z,1017.12
2017-10-26T00:09:56.841Z,1017.12
2017-10-26T00:10:37.410Z,1017.16
2017-10-26T00:11:17.982Z,1017.1
2017-10-26T00:11:58.571Z,1017.05
2017-10-26T00:12:39.153Z,1017.11
2017-10-26T00:13:19.699Z,1017.15
2017-10-26T00:14:00.256Z,1017.15
2017-10-26T00:14:40.826Z,1017.15
2017-10-26T00:15:21.437Z,1017.2
2017-10-26T00:16:02.001Z,1017.25
2017-10-26T00:16:42.586Z,1017.29
2017-10-26T00:17:23.152Z,1017.31
2017-10-26T00:18:03.724Z,1017.37
2017-10-26T00:18:44.288Z,1017.41
2017-10-26T00:19:24.922Z,1017.41
2017-10-26T00:20:05.493Z,1017.46
2017-10-26T00:20:46.091Z,1017.47
2017-10-26T00:21:26.694Z,1017.51
2017-10-26T00:22:07.267Z,1017.48
2017-10-26T00:22:47.844Z,1017.45
2017-10-26T00:23:28.440Z,1017.38
2017-10-26T00:24:09.013Z,1017.36
2017-10-26T00:24:49.640Z,1017.37
2017-10-26T00:25:30.234Z,1017.32
2017-10-26T00:26:10.811Z,1017.34
2017-10-26T00:26:51.388Z,1017.33
2017-10-26T00:27:31.993Z,1017.31
2017-10-26T00:28:12.571Z,1017.3
2017-10-26T00:28:53.186Z,1017.21
2017-10-26T00:29:33.761Z,1017.21
2017-10-26T00:30:14.323Z,1017.22
2017-10-26T00:30:54.949Z,1017.19
2017-10-26T00:31:35.527Z,1017.19
2017-10-26T00:32:16.102Z,1017.23
2017-10-26T00:32:56.674Z,1017.21
2017-10-26T00:33:37.260Z,1017.24
2017-10-26T00:34:20.539Z,1017.22
2017-10-26T00:35:01.118Z,1017.25
2017-10-26T00:35:41.699Z,1017.3
2017-10-26T00:36:22.288Z,1017.29
2017-10-26T00:37:02.846Z,1017.36
2017-10-26T00:37:43.436Z,1017.41
2017-10-26T00:38:24.023Z,1017.42
2017-10-26T00:39:04.600Z,1017.47
2017-10-26T00:39:45.214Z,1017.51
2017-10-26T00:40:26.402Z,1017.49
2017-10-26T00:41:06.979Z,1017.5
2017-10-26T00:41:47.557Z,1017.48
2017-10-26T00:42:28.121Z,1017.47
2017-10-26T00:43:08.696Z,1017.54
2017-10-26T00:43:49.275Z,1017.56
2017-10-26T00:44:29.852Z,1017.59
2017-10-26T00:45:10.423Z,1017.59
2017-10-26T00:45:51.007Z,1017.61
2017-10-26T00:46:31.601Z,1017.59
2017-10-26T00:47:12.164Z,1017.54
2017-10-26T00:47:52.721Z,1017.56
2017-10-26T00:48:33.323Z,1017.56
2017-10-26T00:49:13.884Z,1017.59
2017-10-26T00:49:54.448Z,1017.57
2017-10-26T00:50:35.031Z,1017.6
2017-10-26T00:51:15.619Z,1017.59
2017-10-26T00:51:56.214Z,1017.6
2017-10-26T00:52:36.800Z,1017.5
2017-10-26T00:53:17.381Z,1017.57
2017-10-26T00:53:57.974Z,1017.57
2017-10-26T00:54:38.557Z,1017.59
2017-10-26T00:55:19.137Z,1017.6
2017-10-26T00:55:59.738Z,1017.62
2017-10-26T00:56:40.345Z,1017.64
2017-10-26T00:57:20.939Z,1017.6
2017-10-26T00:58:01.506Z,1017.57
2017-10-26T00:58:42.097Z,1017.61
2017-10-26T00:59:22.687Z,1017.53
2017-10-26T01:00:03.266Z,1017.54
2017-10-26T01:00:43.824Z,1017.55
2017-10-26T01:01:24.401Z,1017.55
2017-10-26T01:02:04.971Z,1017.57
2017-10-26T01:02:45.578Z,1017.57
2017-10-26T01:03:26.158Z,1017.52
2017-10-26T01:04:06.743Z,1017.51
2017-10-26T01:04:47.312Z,1017.48
2017-10-26T01:05:27.919Z,1017.46
2017-10-26T01:06:08.480Z,1017.43
2017-10-26T01:06:49.087Z,1017.35
2017-10-26T01:07:29.665Z,1017.31
2017-10-26T01:08:10.232Z,1017.28
2017-10-26T01:08:50.817Z,1017.28
2017-10-26T01:09:31.425Z,1017.29
2017-10-26T01:10:12.029Z,1017.32
2017-10-26T01:10:52.603Z,1017.34
2017-10-26T01:11:33.199Z,1017.39
2017-10-26T01:12:13.760Z,1017.42
2017-10-26T01:12:54.334Z,1017.45
2017-10-26T01:13:34.912Z,1017.44
2017-10-26T01:14:15.494Z,1017.5
2017-10-26T01:14:56.087Z,1017.54
2017-10-26T01:15:36.695Z,1017.57
2017-10-26T01:16:17.269Z,1017.61
2017-10-26T01:16:57.857Z,1017.55
2017-10-26T01:17:38.468Z,1017.53
2017-10-26T01:18:19.046Z,1017.49
2017-10-26T01:18:59.633Z,1017.53
2017-10-26T01:19:40.220Z,1017.56
2017-10-26T01:20:20.794Z,1017.59
2017-10-26T01:21:01.362Z,1017.61
2017-10-26T01:21:41.964Z,1017.57
2017-10-26T01:22:22.520Z,1017.62
2017-10-26T01:23:03.091Z,1017.55
2017-10-26T01:23:43.669Z,1017.54
2017-10-26T01:24:24.247Z,1017.51
2017-10-26T01:25:04.840Z,1017.5
2017-10-26T01:25:45.419Z,1017.49
2017-10-26T01:26:25.995Z,1017.53
2017-10-26T01:27:06.603Z,1017.52
2017-10-26T01:27:47.193Z,1017.5
2017-10-26T01:28:27.753Z,1017.5
2017-10-26T01:29:08.336Z,1017.56
2017-10-26T01:29:48.891Z,1017.53
2017-10-26T01:30:29.454Z,1017.51
2017-10-26T01:31:10.029Z,1017.51
2017-10-26T01:31:50.580Z,1017.5
2017-10-26T01:32:31.144Z,1017.52
2017-10-26T01:33:11.712Z,1017.49
2017-10-26T01:33:52.281Z,1017.53
2017-10-26T01:34:32.864Z,1017.53
2017-10-26T01:35:13.442Z,1017.54
2017-10-26T01:35:54.003Z,1017.51
2017-10-26T01:36:34.576Z,1017.47
2017-10-26T01:37:15.175Z,1017.49
2017-10-26T01:37:55.751Z,1017.49
2017-10-26T01:38:36.317Z,1017.45
2017-10-26T01:39:16.940Z,1017.47
2017-10-26T01:39:57.520Z,1017.48
2017-10-26T01:40:38.124Z,1017.49
2017-10-26T01:41:18.685Z,1017.48
2017-10-26T01:41:59.272Z,1017.45
2017-10-26T01:42:39.888Z,1017.43
2017-10-26T01:43:20.465Z,1017.44
2017-10-26T01:44:01.043Z,1017.46
2017-10-26T01:44:41.631Z,1017.49
2017-10-26T01:45:22.204Z,1017.54
2017-10-26T01:46:02.780Z,1017.56
2017-10-26T01:46:43.395Z,1017.57
2017-10-26T01:47:23.949Z,1017.54
2017-10-26T01:48:04.560Z,1017.53
2017-10-26T01:48:45.147Z,1017.56
2017-10-26T01:49:25.724Z,1017.5
2017-10-26T01:50:06.317Z,1017.58
2017-10-26T01:50:46.908Z,1017.6
2017-10-26T01:51:27.486Z,1017.61
2017-10-26T01:52:08.077Z,1017.61
2017-10-26T01:52:48.660Z,1017.59
2017-10-26T01:53:29.251Z,1017.62
2017-10-26T01:54:09.837Z,1017.64
2017-10-26T01:54:50.422Z,1017.6
2017-10-26T01:55:31.001Z,1017.61
2017-10-26T01:56:11.586Z,1017.57
2017-10-26T01:56:52.144Z,1017.57
2017-10-26T01:57:32.731Z,1017.58
2017-10-26T01:58:13.336Z,1017.49
2017-10-26T01:58:53.911Z,1017.5
2017-10-26T01:59:34.475Z,1017.5
2017-10-26T02:00:15.054Z,1017.53
2017-10-26T02:00:55.632Z,1017.51
2017-10-26T02:01:36.201Z,1017.52
2017-10-26T02:02:16.774Z,1017.54
2017-10-26T02:02:57.350Z,1017.52
2017-10-26T02:03:37.949Z,1017.54
2017-10-26T02:04:18.507Z,1017.54
2017-10-26T02:04:59.107Z,1017.56
2017-10-26T02:05:39.655Z,1017.57
2017-10-26T02:06:20.240Z,1017.53
2017-10-26T02:07:00.818Z,1017.56
2017-10-26T02:07:41.401Z,1017.54
2017-10-26T02:08:22.000Z,1017.54
2017-10-26T02:09:02.584Z,1017.55
2017-10-26T02:09:43.152Z,1017.55
2017-10-26T02:10:23.725Z,1017.62
2017-10-26T02:11:04.318Z,1017.6
2017-10-26T02:11:44.891Z,1017.66
2017-10-26T02:12:25.467Z,1017.64
2017-10-26T02:13:06.048Z,1017.63
2017-10-26T02:13:46.610Z,1017.64
2017-10-26T02:14:27.176Z,1017.65
2017-10-26T02:15:07.762Z,1017.7
2017-10-26T02:15:48.372Z,1017.64
2017-10-26T02:16:28.969Z,1017.67
2017-10-26T02:17:09.538Z,1017.68
2017-10-26T02:17:50.102Z,1017.67
2017-10-26T02:18:30.673Z,1017.7
2017-10-26T02:19:11.268Z,1017.66
2017-10-26T02:19:51.832Z,1017.62
2017-10-26T02:20:32.396Z,1017.64
2017-10-26T02:21:12.975Z,1017.59
2017-10-26T02:21:53.543Z,1017.55
2017-10-26T02:22:34.124Z,1017.52
2017-10-26T02:23:14.719Z,1017.47
2017-10-26T02:23:55.307Z,1017.49
2017-10-26T02:24:35.905Z,1017.48
2017-10-26T02:25:16.464Z,1017.49
2017-10-26T02:25:57.041Z,1017.49
2017-10-26T02:26:37.610Z,1017.49
2017-10-26T02:27:18.161Z,1017.51
2017-10-26T02:27:58.746Z,1017.51
2017-10-26T02:28:39.329Z,1017.44
2017-10-26T02:29:19.902Z,1017.41
2017-10-26T02:30:00.472Z,1017.42
2017-10-26T02:30:41.040Z,1017.42
2017-10-26T02:31:21.629Z,1017.46
2017-10-26T02:32:02.179Z,1017.44
2017-10-26T02:32:42.775Z,1017.44
2017-10-26T02:33:23.342Z,1017.34
2017-10-26T02:34:03.922Z,1017.33
2017-10-26T02:34:44.489Z,1017.31
2017-10-26T02:35:25.064Z,1017.31
2017-10-26T02:36:05.656Z,1017.28
2017-10-26T02:36:46.227Z,1017.32
2017-10-26T02:37:26.820Z,1017.32
2017-10-26T02:38:07.413Z,1017.34
2017-10-26T02:38:47.987Z,1017.31
2017-10-26T02:39:28.576Z,1017.28
2017-10-26T02:40:09.145Z,1017.31
2017-10-26T02:40:49.719Z,1017.36
2017-10-26T02:41:30.285Z,1017.35
2017-10-26T02:42:10.854Z,1017.34
2017-10-26T02:42:51.429Z,1017.34
2017-10-26T02:43:31.995Z,1017.32
2017-10-26T02:44:12.586Z,1017.4
2017-10-26T02:44:53.164Z,1017.38
2017-10-26T02:45:33.749Z,1017.38
2017-10-26T02:46:14.320Z,1017.37
2017-10-26T02:46:54.935Z,1017.35
2017-10-26T02:47:35.515Z,1017.31
2017-10-26T02:48:16.093Z,1017.3
2017-10-26T02:48:56.660Z,1017.3
2017-10-26T02:49:37.267Z,1017.32
2017-10-26T02:50:17.843Z,1017.27
2017-10-26T02:50:58.417Z,1017.26
2017-10-26T02:51:38.992Z,1017.26
2017-10-26T02:52:19.570Z,1017.25
2017-10-26T02:53:00.153Z,1017.25
2017-10-26T02:53:40.722Z,1017.3
2017-10-26T02:54:21.290Z,1017.34
2017-10-26T02:55:01.883Z,1017.27
2017-10-26T02:55:42.445Z,1017.28
2017-10-26T02:56:23.021Z,1017.27
2017-10-26T02:57:03.581Z,1017.24
2017-10-26T02:57:44.141Z,1017.23
2017-10-26T02:58:24.738Z,1017.26
2017-10-26T02:59:05.329Z,1017.27
2017-10-26T02:59:45.920Z,1017.23
2017-10-26T03:00:26.489Z,1017.23
2017-10-26T03:01:07.078Z,1017.25
2017-10-26T03:01:47.645Z,1017.23
2017-10-26T03:02:28.230Z,1017.25
2017-10-26T03:03:08.810Z,1017.22
2017-10-26T03:03:49.405Z,1017.26
2017-10-26T03:04:29.972Z,1017.23
2017-10-26T03:05:10.557Z,1017.17
2017-10-26T03:05:51.145Z,1017.22
2017-10-26T03:06:31.727Z,1017.24
2017-10-26T03:07:12.287Z,1017.23
2017-10-26T03:07:52.866Z,1017.21
2017-10-26T03:08:33.448Z,1017.26
2017-10-26T03:09:14.007Z,1017.32
2017-10-26T03:09:54.588Z,1017.29
2017-10-26T03:10:35.175Z,1017.25
2017-10-26T03:11:15.741Z,1017.29
2017-10-26T03:11:56.309Z,1017.32
2017-10-26T03:12:36.905Z,1017.3
2017-10-26T03:13:17.502Z,1017.31
2017-10-26T03:13:58.075Z,1017.34
2017-10-26T03:14:38.644Z,1017.36
2017-10-26T03:15:19.232Z,1017.37
2017-10-26T03:15:59.837Z,1017.42
2017-10-26T03:16:40.401Z,1017.38
2017-10-26T03:17:20.993Z,1017.38
2017-10-26T03:18:01.586Z,1017.42
2017-10-26T03:18:42.185Z,1017.41
2017-10-26T03:19:22.765Z,1017.38
2017-10-26T03:20:03.357Z,1017.4
2017-10-26T03:20:43.946Z,1017.37
2017-10-26T03:21:24.524Z,1017.32
2017-10-26T03:22:05.090Z,1017.32
2017-10-26T03:22:45.666Z,1017.35
2017-10-26T03:23:26.239Z,1017.34
2017-10-26T03:24:06.820Z,1017.38
2017-10-26T03:24:47.401Z,1017.34
2017-10-26T03:25:27.987Z,1017.3
2017-10-26T03:26:08.549Z,1017.26
2017-10-26T03:26:49.117Z,1017.22
2017-10-26T03:27:29.707Z,1017.23
2017-10-26T03:28:10.348Z,1017.22
2017-10-26T03:28:50.910Z,1017.23
2017-10-26T03:29:31.494Z,1017.24
2017-10-26T03:30:12.109Z,1017.28
2017-10-26T03:30:52.700Z,1017.28
2017-10-26T03:31:33.259Z,1017.29
2017-10-26T03:32:13.849Z,1017.32
2017-10-26T03:32:54.424Z,1017.31
2017-10-26T03:33:35.017Z,1017.24
2017-10-26T03:34:15.612Z,1017.2
2017-10-26T03:34:56.182Z,1017.19
2017-10-26T03:35:36.773Z,1017.23
2017-10-26T03:36:17.378Z,1017.19
2017-10-26T03:36:57.963Z,1017.23
2017-10-26T03:37:38.526Z,1017.19
2017-10-26T03:38:19.130Z,1017.22
2017-10-26T03:38:59.733Z,1017.22
2017-10-26T03:39:40.317Z,1017.21
2017-10-26T03:40:20.923Z,1017.22
2017-10-26T03:41:01.520Z,1017.18
2017-10-26T03:41:42.095Z,1017.19
2017-10-26T03:42:22.720Z,1017.17
2017-10-26T03:43:03.310Z,1017.17
2017-10-26T03:43:43.912Z,1017.19
2017-10-26T03:44:24.526Z,1017.17
2017-10-26T03:45:05.105Z,1017.15
2017-10-26T03:45:45.703Z,1017.14
2017-10-26T03:46:26.271Z,1017.15
2017-10-26T03:47:06.891Z,1017.16
2017-10-26T03:47:47.473Z,1017.15
2017-10-26T03:48:28.069Z,1017.14
2017-10-26T03:49:08.654Z,1017.15
2017-10-26T03:49:49.233Z,1017.14
2017-10-26T03:50:29.819Z,1017.17
2017-10-26T03:51:10.402Z,1017.19
2017-10-26T03:51:51.018Z,1017.17
2017-10-26T03:52:31.606Z,1017.14
2017-10-26T03:53:12.232Z,1017.19
2017-10-26T03:53:52.830Z,1017.13
2017-10-26T03:54:33.485Z,1017.13
2017-10-26T03:55:14.044Z,1017.15
2017-10-26T03:55:54.591Z,1017.16
2017-10-26T03:56:35.179Z,1017.16
2017-10-26T03:57:15.819Z,1017.16
2017-10-26T03:57:56.397Z,1017.13
2017-10-26T03:58:37.020Z,1017.15
2017-10-26T03:59:17.590Z,1017.15
2017-10-26T03:59:58.153Z,1017.22
2017-10-26T04:00:38.762Z,1017.22
2017-10-26T04:01:19.345Z,1017.28
2017-10-26T04:01:59.962Z,1017.27
2017-10-26T04:02:40.575Z,1017.3
2017-10-26T04:03:21.171Z,1017.34
2017-10-26T04:04:01.766Z,1017.38
2017-10-26T04:04:42.371Z,1017.35
2017-10-26T04:05:22.953Z,1017.4
2017-10-26T04:06:03.534Z,1017.39
2017-10-26T04:06:44.106Z,1017.42
2017-10-26T04:07:24.675Z,1017.38
2017-10-26T04:08:05.300Z,1017.36
2017-10-26T04:08:45.874Z,1017.31
2017-10-26T04:09:26.482Z,1017.28
2017-10-26T04:10:07.039Z,1017.24
2017-10-26T04:10:47.696Z,1017.19
2017-10-26T04:11:28.280Z,1017.22
2017-10-26T04:12:08.903Z,1017.18
2017-10-26T04:12:49.565Z,1017.19
2017-10-26T04:13:30.151Z,1017.14
2017-10-26T04:14:10.725Z,1017.09
2017-10-26T04:14:51.297Z,1017.16
2017-10-26T04:15:31.903Z,1017.19
2017-10-26T04:16:12.517Z,1017.26
2017-10-26T04:16:53.126Z,1017.28
2017-10-26T04:17:33.700Z,1017.41
2017-10-26T04:18:14.300Z,1017.45
2017-10-26T04:18:54.875Z,1017.46
2017-10-26T04:19:35.443Z,1017.53
2017-10-26T04:20:16.035Z,1017.5
2017-10-26T04:20:56.633Z,1017.59
2017-10-26T04:21:37.239Z,1017.58
2017-10-26T04:22:17.814Z,1017.54
2017-10-26T04:22:58.387Z,1017.54
2017-10-26T04:23:38.997Z,1017.51
2017-10-26T04:24:19.624Z,1017.44
2017-10-26T04:25:00.199Z,1017.33
2017-10-26T04:25:40.779Z,1017.25
2017-10-26T04:26:21.387Z,1017.2
2017-10-26T04:27:01.985Z,1017.23
2017-10-26T04:27:42.556Z,1017.23
2017-10-26T04:28:23.143Z,1017.41
2017-10-26T04:29:03.709Z,1017.32
2017-10-26T04:29:44.302Z,1017.36
2017-10-26T04:30:24.885Z,1017.39
2017-10-26T04:31:05.458Z,1017.46
2017-10-26T04:31:46.048Z,1017.52
2017-10-26T04:32:26.631Z,1017.54
2017-10-26T04:33:07.196Z,1017.64
2017-10-26T04:33:47.770Z,1017.69
2017-10-26T04:34:28.328Z,1017.8
2017-10-26T04:35:08.922Z,1017.81
2017-10-26T04:35:49.492Z,1017.85
2017-10-26T04:36:30.074Z,1017.82
2017-10-26T04:37:10.674Z,1017.74
2017-10-26T04:37:51.240Z,1017.65
2017-10-26T04:38:31.825Z,1017.61
2017-10-26T04:39:12.405Z,1017.51
2017-10-26T04:39:52.984Z,1017.51
2017-10-26T04:40:33.586Z,1017.51
2017-10-26T04:41:14.173Z,1017.42
2017-10-26T04:41:54.753Z,1017.52
2017-10-26T04:42:35.326Z,1017.51
2017-10-26T04:43:15.892Z,1017.52
2017-10-26T04:43:56.467Z,1017.52
2017-10-26T04:44:37.030Z,1017.57
2017-10-26T04:45:17.683Z,1017.53
2017-10-26T04:45:58.321Z,1017.44
2017-10-26T04:46:38.924Z,1017.36
2017-10-26T04:47:19.449Z,1017.32
2017-10-26T04:48:00.110Z,1017.29
2017-10-26T04:48:40.725Z,1017.29
2017-10-26T04:49:21.359Z,1017.38
2017-10-26T04:50:01.959Z,1017.45
2017-10-26T04:50:42.621Z,1017.56
2017-10-26T04:51:23.212Z,1017.67
2017-10-26T04:52:03.787Z,1017.81
2017-10-26T04:52:44.365Z,1017.81
2017-10-26T04:53:24.934Z,1017.8
2017-10-26T04:54:05.525Z,1017.74
2017-10-26T04:54:46.138Z,1017.69
2017-10-26T04:55:26.730Z,1017.62
2017-10-26T04:56:07.307Z,1017.52
2017-10-26T04:56:47.892Z,1017.54
2017-10-26T04:57:28.460Z,1017.64
2017-10-26T04:58:09.050Z,1017.62
2017-10-26T04:58:49.628Z,1017.73
2017-10-26T04:59:30.198Z,1017.68
2017-10-26T05:00:10.833Z,1017.61
2017-10-26T05:00:51.412Z,1017.46
2017-10-26T05:01:32.000Z,1017.43
2017-10-26T05:02:12.598Z,1017.42
2017-10-26T05:02:53.177Z,1017.41
2017-10-26T05:03:33.752Z,1017.41
2017-10-26T05:04:14.325Z,1017.37
2017-10-26T05:04:54.907Z,1017.35
2017-10-26T05:05:35.496Z,1017.37
2017-10-26T05:06:16.081Z,1017.34
2017-10-26T05:06:56.689Z,1017.39
2017-10-26T05:07:37.285Z,1017.36
2017-10-26T05:08:17.899Z,1017.37
2017-10-26T05:08:58.476Z,1017.34
2017-10-26T05:09:39.046Z,1017.31
2017-10-26T05:10:19.618Z,1017.31
2017-10-26T05:11:00.203Z,1017.26
2017-10-26T05:11:40.768Z,1017.33
2017-10-26T05:12:21.348Z,1017.31
2017-10-26T05:13:01.929Z,1017.31
2017-10-26T05:13:42.499Z,1017.33
2017-10-26T05:14:23.148Z,1017.31
2017-10-26T05:15:03.756Z,1017.34
2017-10-26T05:15:44.355Z,1017.35
2017-10-26T05:16:24.919Z,1017.4
2017-10-26T05:17:05.506Z,1017.41
2017-10-26T05:17:46.108Z,1017.41
2017-10-26T05:18:26.684Z,1017.48
2017-10-26T05:19:07.299Z,1017.5
2017-10-26T05:19:47.875Z,1017.48
2017-10-26T05:20:28.460Z,1017.41
2017-10-26T05:21:09.043Z,1017.39
2017-10-26T05:21:49.637Z,1017.36
2017-10-26T05:22:30.242Z,1017.33
2017-10-26T05:23:10.824Z,1017.31
2017-10-26T05:23:51.407Z,1017.3
2017-10-26T05:24:32.135Z,1017.37
2017-10-26T05:25:12.702Z,1017.43
2017-10-26T05:25:53.344Z,1017.43
2017-10-26T05:26:34.099Z,1017.37
2017-10-26T05:27:14.901Z,1017.36
2017-10-26T05:27:55.546Z,1017.33
2017-10-26T05:28:36.103Z,1017.33
2017-10-26T05:29:16.701Z,1017.28
2017-10-26T05:29:57.360Z,1017.3
2017-10-26T05:30:37.925Z,1017.28
2017-10-26T05:31:18.502Z,1017.27
2017-10-26T05:31:59.069Z,1017.3
2017-10-26T05:32:39.670Z,1017.3
2017-10-26T05:33:20.251Z,1017.3
2017-10-26T05:34:00.842Z,1017.25
2017-10-26T05:34:41.402Z,1017.28
2017-10-26T05:35:22.007Z,1017.32
2017-10-26T05:36:02.582Z,1017.29
2017-10-26T05:36:43.148Z,1017.28
2017-10-26T05:37:23.746Z,1017.3
2017-10-26T05:38:04.362Z,1017.31
2017-10-26T05:38:44.943Z,1017.34
2017-10-26T05:39:25.509Z,1017.39
2017-10-26T05:40:06.115Z,1017.35
2017-10-26T05:40:46.692Z,1017.36
2017-10-26T05:41:27.318Z,1017.34
2017-10-26T05:42:07.923Z,1017.32
2017-10-26T05:42:48.489Z,1017.33
2017-10-26T05:43:29.060Z,1017.35
2017-10-26T05:44:09.643Z,1017.33
2017-10-26T05:44:50.207Z,1017.35
2017-10-26T05:45:30.779Z,1017.27
2017-10-26T05:46:11.369Z,1017.31
2017-10-26T05:46:51.959Z,1017.34
2017-10-26T05:47:33.334Z,1017.34
2017-10-26T05:48:13.915Z,1017.33
2017-10-26T05:48:54.497Z,1017.35
2017-10-26T05:49:35.107Z,1017.38
2017-10-26T05:50:15.704Z,1017.41
2017-10-26T05:50:56.289Z,1017.47
2017-10-26T05:51:36.884Z,1017.44
2017-10-26T05:52:17.471Z,1017.45
2017-10-26T05:52:58.084Z,1017.47
2017-10-26T05:53:38.727Z,1017.48
2017-10-26T05:54:19.319Z,1017.44
2017-10-26T05:54:59.893Z,1017.43
2017-10-26T05:55:40.486Z,1017.39
2017-10-26T05:56:21.084Z,1017.41
2017-10-26T05:57:01.712Z,1017.39
2017-10-26T05:57:42.389Z,1017.41
2017-10-26T05:58:22.997Z,1017.43
2017-10-26T05:59:03.598Z,1017.41
2017-10-26T05:59:44.700Z,1017.33
2017-10-26T06:00:25.290Z,1017.26
2017-10-26T06:01:05.846Z,1017.16
2017-10-26T06:01:46.456Z,1017.11
2017-10-26T06:02:27.042Z,1017.13
2017-10-26T06:03:07.667Z,1017.1
2017-10-26T06:03:48.239Z,1017.14
2017-10-26T06:04:28.828Z,1017.15
2017-10-26T06:05:09.424Z,1017.06
2017-10-26T06:05:50.002Z,1017.05
2017-10-26T06:06:30.594Z,1017.04
2017-10-26T06:07:11.192Z,1017.1
2017-10-26T06:07:51.793Z,1017.03
2017-10-26T06:08:32.393Z,1017.06
2017-10-26T06:09:12.984Z,1017.03
2017-10-26T06:09:53.577Z,1017.06
2017-10-26T06:10:34.177Z,1017.08
2017-10-26T06:11:14.776Z,1017.03
2017-10-26T06:11:55.415Z,1017.05
2017-10-26T06:12:36.002Z,1016.98
2017-10-26T06:13:16.613Z,1016.99
2017-10-26T06:13:57.226Z,1016.88
2017-10-26T06:14:37.831Z,1016.82
2017-10-26T06:15:18.407Z,1016.8
2017-10-26T06:15:58.981Z,1016.83
2017-10-26T06:16:39.593Z,1016.95
2017-10-26T06:17:20.183Z,1016.98
2017-10-26T06:18:00.781Z,1017.03
2017-10-26T06:18:41.390Z,1017.11
2017-10-26T06:19:21.956Z,1017.15
2017-10-26T06:20:02.536Z,1017.27
2017-10-26T06:20:43.117Z,1017.3
2017-10-26T06:21:23.694Z,1017.28
2017-10-26T06:22:04.275Z,1017.24
2017-10-26T06:22:44.897Z,1017.28
2017-10-26T06:23:25.477Z,1017.26
2017-10-26T06:24:06.040Z,1017.26
2017-10-26T06:24:46.622Z,1017.3
2017-10-26T06:25:27.231Z,1017.3
2017-10-26T06:26:07.822Z,1017.3
2017-10-26T06:26:48.394Z,1017.35
2017-10-26T06:27:28.961Z,1017.34
2017-10-26T06:28:09.541Z,1017.3
2017-10-26T06:28:50.104Z,1017.29
2017-10-26T06:29:30.759Z,1017.31
2017-10-26T06:30:11.371Z,1017.34
2017-10-26T06:30:51.950Z,1017.29
2017-10-26T06:31:32.502Z,1017.32
2017-10-26T06:32:13.091Z,1017.31
2017-10-26T06:32:53.671Z,1017.33
2017-10-26T06:33:34.256Z,1017.35
2017-10-26T06:34:14.838Z,1017.39
2017-10-26T06:34:55.422Z,1017.42
2017-10-26T06:35:35.977Z,1017.51
2017-10-26T06:36:16.562Z,1017.52
2017-10-26T06:36:57.196Z,1017.58
2017-10-26T06:37:37.835Z,1017.53
2017-10-26T06:38:18.424Z,1017.61
2017-10-26T06:38:58.988Z,1017.62
2017-10-26T06:39:39.578Z,1017.63
2017-10-26T06:40:20.146Z,1017.61
2017-10-26T06:41:00.731Z,1017.66
2017-10-26T06:41:41.296Z,1017.6
2017-10-26T06:42:21.860Z,1017.63
2017-10-26T06:43:02.429Z,1017.67
2017-10-26T06:43:42.998Z,1017.71
2017-10-26T06:44:23.569Z,1017.69
2017-10-26T06:45:04.153Z,1017.72
2017-10-26T06:45:44.711Z,1017.68
2017-10-26T06:46:25.317Z,1017.7
2017-10-26T06:47:05.886Z,1017.7
2017-10-26T06:47:46.458Z,1017.72
2017-10-26T06:48:27.042Z,1017.72
2017-10-26T06:49:07.636Z,1017.73
2017-10-26T06:49:48.255Z,1017.75
2017-10-26T06:50:28.873Z,1017.81
2017-10-26T06:51:09.417Z,1017.77
2017-10-26T06:51:50.025Z,1017.74
2017-10-26T06:52:30.621Z,1017.74
2017-10-26T06:53:11.173Z,1017.73
2017-10-26T06:53:51.770Z,1017.76
2017-10-26T06:54:32.382Z,1017.73
2017-10-26T06:55:12.983Z,1017.73
2017-10-26T06:55:53.556Z,1017.72
2017-10-26T06:56:34.143Z,1017.77
2017-10-26T06:57:14.738Z,1017.76
2017-10-26T06:57:55.337Z,1017.8
2017-10-26T06:58:35.907Z,1017.81
2017-10-26T06:59:16.485Z,1017.83
2017-10-26T06:59:57.087Z,1017.86
2017-10-26T07:00:37.648Z,1017.86
2017-10-26T07:01:18.242Z,1017.81
2017-10-26T07:01:58.824Z,1017.82
2017-10-26T07:02:39.419Z,1017.82
2017-10-26T07:03:20.012Z,1017.81
2017-10-26T07:04:00.580Z,1017.84
2017-10-26T07:04:41.165Z,1017.84
2017-10-26T07:05:21.819Z,1017.86
2017-10-26T07:06:02.394Z,1017.86
2017-10-26T07:06:42.995Z,1017.87
2017-10-26T07:07:23.587Z,1017.85
2017-10-26T07:08:04.200Z,1017.87
2017-10-26T07:08:44.880Z,1017.92
2017-10-26T07:09:25.442Z,1017.9
2017-10-26T07:10:06.021Z,1017.88
2017-10-26T07:10:46.611Z,1017.81
2017-10-26T07:11:27.229Z,1017.81
2017-10-26T07:12:07.870Z,1017.76
2017-10-26T07:12:48.439Z,1017.71
2017-10-26T07:13:29.043Z,1017.63
2017-10-26T07:14:09.658Z,1017.57
2017-10-26T07:14:50.247Z,1017.54
2017-10-26T07:15:30.833Z,1017.56
2017-10-26T07:16:11.497Z,1017.56
2017-10-26T07:16:52.115Z,1017.55
2017-10-26T07:17:32.715Z,1017.56
2017-10-26T07:18:13.314Z,1017.53
2017-10-26T07:18:53.903Z,1017.51
2017-10-26T07:19:34.496Z,1017.56
2017-10-26T07:20:15.099Z,1017.58
2017-10-26T07:20:55.698Z,1017.62
2017-10-26T07:21:36.294Z,1017.61
2017-10-26T07:22:16.892Z,1017.51
2017-10-26T07:22:57.505Z,1017.38
2017-10-26T07:23:38.066Z,1017.32
2017-10-26T07:24:18.637Z,1017.24
2017-10-26T07:24:59.216Z,1017.2
2017-10-26T07:25:39.824Z,1017.1
2017-10-26T07:26:20.388Z,1017.07
2017-10-26T07:27:00.954Z,1017.05
2017-10-26T07:27:41.552Z,1017.09
2017-10-26T07:28:22.121Z,1017.21
2017-10-26T07:29:02.693Z,1017.23
2017-10-26T07:29:43.293Z,1017.28
2017-10-26T07:30:23.887Z,1017.3
2017-10-26T07:31:04.449Z,1017.29
2017-10-26T07:31:45.019Z,1017.27
2017-10-26T07:32:25.614Z,1017.29
2017-10-26T07:33:06.242Z,1017.32
2017-10-26T07:33:46.818Z,1017.4
2017-10-26T07:34:27.413Z,1017.5
2017-10-26T07:35:07.988Z,1017.54
2017-10-26T07:35:48.575Z,1017.55
2017-10-26T07:36:29.164Z,1017.51
2017-10-26T07:37:09.789Z,1017.49
2017-10-26T07:37:50.379Z,1017.48
2017-10-26T07:38:30.983Z,1017.44
2017-10-26T07:39:11.583Z,1017.43
2017-10-26T07:39:52.160Z,1017.45
2017-10-26T07:40:32.734Z,1017.4
2017-10-26T07:41:13.301Z,1017.27
2017-10-26T07:41:53.883Z,1017.22
2017-10-26T07:42:34.440Z,1017.3
2017-10-26T07:43:15.015Z,1017.39
2017-10-26T07:43:55.609Z,1017.47
2017-10-26T07:44:36.207Z,1017.47
2017-10-26T07:45:16.816Z,1017.41
2017-10-26T07:45:57.454Z,1017.34
2017-10-26T07:46:38.001Z,1017.33
2017-10-26T07:47:18.573Z,1017.33
2017-10-26T07:47:59.225Z,1017.4
2017-10-26T07:48:39.887Z,1017.37
2017-10-26T07:49:20.421Z,1017.35
2017-10-26T07:50:01.017Z,1017.37
2017-10-26T07:50:41.647Z,1017.34
2017-10-26T07:51:22.219Z,1017.33
2017-10-26T07:52:02.844Z,1017.34
2017-10-26T07:52:43.525Z,1017.39
2017-10-26T07:53:24.078Z,1017.38
2017-10-26T07:54:04.685Z,1017.4
2017-10-26T07:54:45.351Z,1017.44
2017-10-26T07:55:25.929Z,1017.51
2017-10-26T07:56:06.532Z,1017.5
2017-10-26T07:56:47.142Z,1017.46
2017-10-26T07:57:27.727Z,1017.45
2017-10-26T07:58:08.342Z,1017.39
2017-10-26T07:58:48.937Z,1017.38
2017-10-26T07:59:29.543Z,1017.36
2017-10-26T08:00:10.106Z,1017.31
2017-10-26T08:00:50.731Z,1017.39
2017-10-26T08:01:31.313Z,1017.38
2017-10-26T08:02:11.896Z,1017.38
2017-10-26T08:02:52.454Z,1017.42
2017-10-26T08:03:33.036Z,1017.5
2017-10-26T08:04:13.639Z,1017.61
2017-10-26T08:04:54.241Z,1017.63
2017-10-26T08:05:34.830Z,1017.57
2017-10-26T08:06:15.448Z,1017.55
2017-10-26T08:06:56.039Z,1017.53
2017-10-26T08:07:36.624Z,1017.52
2017-10-26T08:08:17.243Z,1017.46
2017-10-26T08:08:57.815Z,1017.46
2017-10-26T08:09:38.400Z,1017.51
2017-10-26T08:10:19.019Z,1017.48
2017-10-26T08:10:59.595Z,1017.45
2017-10-26T08:11:40.184Z,1017.46
2017-10-26T08:12:20.766Z,1017.44
2017-10-26T08:13:01.393Z,1017.43